Time;durP1;ratioP1;P1;durP2;ratioP2;P2;SDS_P1;SDS_P2;PMS_P1;PMS_P2;Temp;Humidity;BMP_temperature;BMP_pressure;BME280_temperature;BME280_humidity;BME280_pressure;Samples;Min_cycle;Max_cycle;Signal;HPM_P1;HPM_P2
2023/08/08 00:00:45;;;;;;;2.63;1.20;;;;;;;16.76;68.26;100162.97;10182413;28;20543;-60
2023/08/08 00:05:46;;;;;;;2.20;1.85;;;;;;;16.73;68.58;100157.94;10178470;28;20250;-60
2023/08/08 00:10:48;;;;;;;2.05;1.50;;;;;;;16.70;69.11;100155.56;10175285;28;20074;-62
2023/08/08 00:15:49;;;;;;;2.28;1.60;;;;;;;16.68;69.31;100154.88;10188337;28;20062;-62
2023/08/08 00:20:51;;;;;;;2.70;1.77;;;;;;;16.66;69.34;100155.03;10176577;28;20062;-60
2023/08/08 00:25:52;;;;;;;1.55;1.25;;;;;;;16.63;70.03;100160.75;10191006;28;20137;-61
2023/08/08 00:30:54;;;;;;;3.60;2.15;;;;;;;16.63;69.27;100165.28;10189951;28;20086;-61
2023/08/08 00:35:56;;;;;;;2.33;1.40;;;;;;;16.61;70.14;100166.28;10188371;28;20129;-61
2023/08/08 00:40:58;;;;;;;3.20;1.90;;;;;;;16.57;70.23;100167.66;10201665;28;20062;-61
2023/08/08 00:45:59;;;;;;;4.53;2.05;;;;;;;16.54;70.38;100151.00;10178960;28;20087;-60
2023/08/08 00:51:02;;;;;;;3.13;1.52;;;;;;;16.52;70.85;100151.16;10189442;28;20051;-61
2023/08/08 00:56:03;;;;;;;3.67;2.28;;;;;;;16.50;71.33;100160.38;10200648;28;20198;-60
2023/08/08 01:01:05;;;;;;;1.85;1.55;;;;;;;16.52;71.23;100147.66;10183859;28;20150;-60
2023/08/08 01:06:19;;;;;;;3.40;1.83;;;;;;;16.54;71.22;100134.88;10176033;28;20062;-60
2023/08/08 01:11:21;;;;;;;4.30;2.35;;;;;;;16.53;71.02;100131.38;10183055;28;20405;-60
2023/08/08 01:16:24;;;;;;;2.80;1.75;;;;;;;16.50;71.33;100131.69;10186307;28;20047;-60
2023/08/08 01:21:28;;;;;;;2.90;1.80;;;;;;;16.49;71.58;100131.88;10182669;28;20056;-61
2023/08/08 01:26:30;;;;;;;4.05;2.03;;;;;;;16.48;71.85;100131.00;10167314;28;20066;-61
2023/08/08 01:31:32;;;;;;;2.75;1.90;;;;;;;16.47;71.63;100132.03;10184517;28;20077;-61
2023/08/08 01:37:06;;;;;;;5.40;1.77;;;;;;;16.40;70.97;100131.00;10186282;28;20055;-62
2023/08/08 01:42:08;;;;;;;2.95;1.75;;;;;;;16.38;71.32;100124.97;10191062;28;20031;-61
2023/08/08 01:47:10;;;;;;;2.22;1.45;;;;;;;16.29;72.62;100120.53;10186166;28;20058;-60
2023/08/08 01:52:11;;;;;;;3.05;1.67;;;;;;;16.29;73.09;100117.88;10188256;28;20146;-61
2023/08/08 01:57:13;;;;;;;2.78;1.98;;;;;;;16.23;72.48;100111.31;10188251;28;20052;-61
2023/08/08 02:02:17;;;;;;;2.05;1.63;;;;;;;16.20;74.54;100117.84;10189056;28;20123;-60
2023/08/08 02:07:18;;;;;;;3.40;2.03;;;;;;;16.16;73.63;100116.50;10184510;28;20063;-60
2023/08/08 02:12:20;;;;;;;5.22;2.10;;;;;;;16.12;72.74;100114.28;10174461;28;20730;-60
2023/08/08 02:17:21;;;;;;;2.88;1.45;;;;;;;16.07;72.79;100102.19;10186294;28;20051;-61
2023/08/08 02:22:23;;;;;;;2.53;2.03;;;;;;;16.00;73.57;100111.06;10173982;28;20055;-61
2023/08/08 02:27:24;;;;;;;2.10;1.58;;;;;;;15.91;73.63;100112.88;10183307;28;20150;-61
2023/08/08 02:32:26;;;;;;;2.97;1.85;;;;;;;15.90;73.68;100108.53;10177135;28;20107;-61
2023/08/08 02:37:27;;;;;;;1.92;1.73;;;;;;;15.85;73.40;100106.34;10186372;28;20051;-61
2023/08/08 02:42:29;;;;;;;2.83;1.60;;;;;;;15.74;72.30;100106.56;10184120;28;20146;-61
2023/08/08 02:47:30;;;;;;;2.03;1.50;;;;;;;15.64;73.10;100105.84;10182450;28;20134;-62
2023/08/08 02:52:32;;;;;;;3.25;1.60;;;;;;;15.55;73.94;100097.78;10184607;28;20052;-61
2023/08/08 02:57:33;;;;;;;3.65;1.70;;;;;;;15.56;74.05;100109.34;10199705;28;20122;-61
2023/08/08 03:02:35;;;;;;;1.80;1.52;;;;;;;15.53;74.54;100110.47;10184960;28;20131;-61
2023/08/08 03:07:36;;;;;;;1.60;1.45;;;;;;;15.50;75.49;100110.81;10171375;28;20320;-61
2023/08/08 03:12:39;;;;;;;1.50;1.40;;;;;;;15.52;74.68;100119.56;10164301;28;20059;-61
2023/08/08 03:17:41;;;;;;;2.00;1.63;;;;;;;15.49;74.26;100116.31;10183588;28;20067;-62
2023/08/08 03:22:42;;;;;;;2.78;1.80;;;;;;;15.36;75.16;100119.44;10181467;28;20070;-61
2023/08/08 03:27:44;;;;;;;3.90;1.38;;;;;;;15.28;75.61;100117.56;10181448;28;20919;-61
2023/08/08 03:32:45;;;;;;;1.98;1.50;;;;;;;15.29;76.10;100116.53;10199113;28;20051;-61
2023/08/08 03:37:47;;;;;;;3.97;2.05;;;;;;;15.27;75.96;100120.41;10186879;28;20077;-61
2023/08/08 03:42:48;;;;;;;3.22;1.60;;;;;;;15.19;76.91;100113.97;10186813;28;20063;-67
2023/08/08 03:47:50;;;;;;;2.70;1.80;;;;;;;15.16;76.43;100118.78;10188476;28;20560;-61
2023/08/08 03:52:52;;;;;;;2.08;1.60;;;;;;;15.12;77.35;100112.91;10196534;28;20058;-61
2023/08/08 03:57:54;;;;;;;2.28;1.10;;;;;;;15.08;77.04;100111.53;10202597;28;20049;-60
2023/08/08 04:02:55;;;;;;;2.53;1.40;;;;;;;15.05;77.48;100100.31;10195392;28;20634;-62
2023/08/08 04:07:57;;;;;;;3.78;2.30;;;;;;;15.00;77.26;100098.09;10187378;28;20306;-61
2023/08/08 04:12:59;;;;;;;3.50;1.40;;;;;;;14.82;77.94;100096.28;10198607;28;20055;-61
2023/08/08 04:18:01;;;;;;;3.33;1.60;;;;;;;14.81;78.43;100099.09;10199030;28;20427;-61
2023/08/08 04:23:02;;;;;;;3.55;1.77;;;;;;;14.79;78.05;100096.59;10197487;28;20071;-61
2023/08/08 04:28:04;;;;;;;1.85;1.35;;;;;;;14.69;78.61;100103.84;10196421;28;20523;-61
2023/08/08 04:33:06;;;;;;;1.95;1.55;;;;;;;14.66;78.70;100107.69;10195973;28;20134;-63
2023/08/08 04:38:07;;;;;;;1.90;1.40;;;;;;;14.65;78.71;100113.19;10195014;28;20057;-61
2023/08/08 04:43:09;;;;;;;2.25;1.33;;;;;;;14.65;78.65;100107.84;10197253;28;20143;-60
2023/08/08 04:48:11;;;;;;;3.28;1.73;;;;;;;14.59;78.77;100106.59;10196415;28;20142;-61
2023/08/08 04:53:12;;;;;;;3.60;1.77;;;;;;;14.63;78.64;100108.00;10193258;28;20056;-61
2023/08/08 04:58:13;;;;;;;2.78;1.48;;;;;;;14.56;79.16;100116.75;10192413;28;20052;-61
2023/08/08 05:03:15;;;;;;;2.63;1.33;;;;;;;14.55;79.47;100099.03;10187949;28;20735;-61
2023/08/08 05:08:17;;;;;;;3.08;1.30;;;;;;;14.52;78.83;100100.16;10189059;28;20075;-64
2023/08/08 05:13:19;;;;;;;1.98;1.75;;;;;;;14.43;79.42;100096.56;10180650;28;20059;-63
2023/08/08 05:18:21;;;;;;;1.55;1.30;;;;;;;14.56;80.01;100098.00;10192149;28;20086;-61
2023/08/08 05:23:22;;;;;;;3.53;1.50;;;;;;;14.59;79.21;100097.69;10186395;28;20101;-61
2023/08/08 05:28:24;;;;;;;3.17;1.67;;;;;;;14.61;78.70;100090.41;10186962;28;20129;-60
2023/08/08 05:33:25;;;;;;;2.55;1.77;;;;;;;14.64;78.84;100082.06;10186912;28;20055;-60
2023/08/08 05:38:27;;;;;;;1.55;1.17;;;;;;;14.72;78.72;100090.16;10189353;28;20514;-60
2023/08/08 05:43:28;;;;;;;2.85;1.35;;;;;;;14.74;79.03;100090.88;10186916;28;20070;-60
2023/08/08 05:48:31;;;;;;;2.60;1.25;;;;;;;14.79;78.18;100091.22;10188529;28;20056;-61
2023/08/08 05:53:33;;;;;;;3.53;1.45;;;;;;;14.83;77.96;100097.09;10171035;28;20134;-61
2023/08/08 05:58:36;;;;;;;2.22;1.13;;;;;;;14.96;78.46;100096.72;10173923;28;20058;-61
2023/08/08 06:03:38;;;;;;;1.63;1.30;;;;;;;15.14;77.39;100105.56;10186965;28;20102;-61
2023/08/08 06:08:39;;;;;;;2.35;1.73;;;;;;;15.21;77.07;100095.06;10173333;28;20614;-61
2023/08/08 06:13:41;;;;;;;2.90;1.55;;;;;;;15.26;75.99;100091.91;10184030;28;20052;-60
2023/08/08 06:18:42;;;;;;;3.95;1.40;;;;;;;15.39;76.39;100089.63;10183319;28;20051;-60
2023/08/08 06:23:44;;;;;;;2.88;1.05;;;;;;;15.52;75.69;100098.09;10179738;28;20214;-60
2023/08/08 06:28:45;;;;;;;2.50;1.45;;;;;;;15.55;75.45;100097.78;10199735;28;20051;-60
2023/08/08 06:33:47;;;;;;;1.75;1.20;;;;;;;15.67;74.87;100090.28;10182607;28;20047;-60
2023/08/08 06:38:48;;;;;;;3.30;1.17;;;;;;;15.81;75.14;100088.88;10171699;28;20051;-60
2023/08/08 06:43:51;;;;;;;2.65;1.33;;;;;;;15.96;73.38;100088.22;10185451;28;20047;-60
2023/08/08 06:48:56;;;;;;;3.97;1.10;;;;;;;16.07;72.43;100086.09;10183998;28;20694;-60
2023/08/08 06:53:58;;;;;;;2.22;1.15;;;;;;;16.09;72.39;100077.88;10183906;28;20043;-60
2023/08/08 06:59:00;;;;;;;4.70;1.48;;;;;;;16.16;72.33;100083.44;10183039;28;20063;-60
2023/08/08 07:04:01;;;;;;;4.65;1.50;;;;;;;16.35;72.08;100087.66;10201135;28;20195;-61
2023/08/08 07:09:03;;;;;;;3.05;1.30;;;;;;;16.44;72.36;100092.06;10187149;28;20618;-60
2023/08/08 07:14:04;;;;;;;2.05;1.15;;;;;;;16.61;71.97;100084.84;10199346;28;20044;-60
2023/08/08 07:19:06;;;;;;;1.75;1.05;;;;;;;16.87;70.49;100071.25;10187607;28;20055;-60
2023/08/08 07:24:09;;;;;;;3.53;1.20;;;;;;;16.85;66.70;100069.75;10183437;28;20413;-60
2023/08/08 07:29:11;;;;;;;2.63;0.88;;;;;;;17.03;67.48;100077.66;10181930;28;20051;-60
2023/08/08 07:34:12;;;;;;;1.55;1.05;;;;;;;17.21;67.06;100072.09;10185575;28;20051;-60
2023/08/08 07:39:14;;;;;;;2.60;0.77;;;;;;;17.35;66.10;100063.28;10196556;28;20051;-60
2023/08/08 07:44:16;;;;;;;2.38;1.30;;;;;;;17.47;64.53;100067.31;10161914;28;20066;-60
2023/08/08 07:49:17;;;;;;;2.08;0.80;;;;;;;17.61;63.15;100068.44;10194226;28;20952;-60
2023/08/08 07:54:19;;;;;;;3.03;0.88;;;;;;;17.79;64.62;100065.50;10181564;28;20055;-60
2023/08/08 07:59:21;;;;;;;2.45;1.38;;;;;;;18.09;63.05;100054.94;10200119;28;20182;-60
2023/08/08 08:04:22;;;;;;;2.50;0.90;;;;;;;18.08;60.77;100052.44;10180783;28;20539;-60
2023/08/08 08:09:24;;;;;;;1.52;0.45;;;;;;;18.09;61.42;100054.94;10184017;28;20075;-60
2023/08/08 08:14:25;;;;;;;4.10;0.80;;;;;;;18.15;59.78;100053.38;10199680;28;20503;-60
2023/08/08 08:19:27;;;;;;;2.28;0.70;;;;;;;18.09;59.60;100048.69;10198167;28;20055;-60
2023/08/08 08:24:28;;;;;;;3.75;0.80;;;;;;;18.15;58.73;100045.28;10184005;28;20062;-60
2023/08/08 08:29:31;;;;;;;1.50;0.55;;;;;;;18.27;56.87;100045.72;10188201;28;20055;-60
2023/08/08 08:34:33;;;;;;;2.22;0.73;;;;;;;18.38;56.95;100035.38;10204615;28;20527;-60
2023/08/08 08:39:36;;;;;;;1.50;0.65;;;;;;;18.58;54.47;100037.56;10190487;28;20071;-60
2023/08/08 08:44:40;;;;;;;4.57;1.30;;;;;;;18.61;55.39;100050.69;10189201;28;20136;-60
2023/08/08 08:49:45;;;;;;;3.50;1.05;;;;;;;18.64;56.01;100044.94;10193119;28;20714;-60
2023/08/08 08:54:47;;;;;;;2.47;0.70;;;;;;;18.75;54.23;100046.38;10175603;28;20055;-58
2023/08/08 08:59:49;;;;;;;2.58;0.70;;;;;;;18.78;55.19;100042.47;10208196;28;20052;-60
2023/08/08 09:04:52;;;;;;;2.25;0.60;;;;;;;18.97;54.22;100051.94;10191192;28;20059;-61
2023/08/08 09:09:53;;;;;;;1.40;0.60;;;;;;;18.92;52.97;100039.00;10174651;28;20051;-60
2023/08/08 09:14:58;;;;;;;1.50;0.50;;;;;;;19.02;54.02;100034.19;10169937;28;20083;-60
2023/08/08 09:20:00;;;;;;;2.28;1.00;;;;;;;19.34;52.44;100037.56;10189318;28;20603;-59
2023/08/08 09:25:02;;;;;;;4.50;1.00;;;;;;;19.50;52.42;100016.78;10187772;28;20066;-59
2023/08/08 09:30:04;;;;;;;2.35;0.65;;;;;;;19.58;51.64;100024.78;10188589;28;20350;-60
2023/08/08 09:35:09;;;;;;;3.92;0.93;;;;;;;19.71;51.71;100027.66;10188848;28;20051;-60
2023/08/08 09:40:11;;;;;;;1.70;1.00;;;;;;;19.81;51.61;100035.50;10187196;28;20099;-60
2023/08/08 09:45:13;;;;;;;2.67;0.77;;;;;;;19.73;51.81;100022.91;10188714;28;20087;-65
2023/08/08 09:50:15;;;;;;;1.17;0.60;;;;;;;19.65;52.94;100014.06;10172507;28;20130;-58
2023/08/08 09:55:18;;;;;;;2.17;1.05;;;;;;;19.76;51.89;100022.53;10184266;28;20110;-58
2023/08/08 10:00:20;;;;;;;1.50;1.00;;;;;;;19.97;53.38;100010.13;10186904;28;20043;-59
2023/08/08 10:05:22;;;;;;;2.80;0.65;;;;;;;20.22;52.77;100013.31;10186162;28;20043;-58
2023/08/08 10:10:24;;;;;;;1.67;0.73;;;;;;;20.28;52.08;100017.09;10185366;28;20063;-59
2023/08/08 10:15:29;;;;;;;3.20;0.90;;;;;;;20.55;51.78;100018.19;10171019;28;20055;-58
2023/08/08 10:20:35;;;;;;;1.98;0.80;;;;;;;20.76;50.11;100008.38;10183211;28;20137;-59
2023/08/08 10:25:44;;;;;;;2.75;0.85;;;;;;;20.58;49.64;100016.94;10183316;28;20051;-57
2023/08/08 10:30:53;;;;;;;1.83;1.05;;;;;;;20.71;50.59;100019.78;10182195;28;20109;-58
2023/08/08 10:35:58;;;;;;;3.25;0.75;;;;;;;20.78;48.11;100007.16;10192149;28;20050;-58
2023/08/08 10:41:02;;;;;;;3.47;1.00;;;;;;;20.94;47.80;100005.19;10185902;28;20219;-59
2023/08/08 10:46:04;;;;;;;1.10;0.43;;;;;;;20.97;46.73;100004.78;10197370;28;20672;-58
2023/08/08 10:51:15;;;;;;;1.38;0.73;;;;;;;21.21;46.40;100010.78;10180969;28;20051;-59
2023/08/08 10:56:18;;;;;;;2.95;0.68;;;;;;;21.18;46.55;100003.88;10186207;28;20063;-59
2023/08/08 11:01:24;;;;;;;;;;;;;;;21.09;47.06;100010.50;10181818;28;20435;-64
2023/08/08 11:06:26;;;;;;;2.10;0.95;;;;;;;21.19;47.23;100008.28;10172273;28;19923;-59
2023/08/08 11:11:28;;;;;;;1.75;0.73;;;;;;;21.35;47.18;100009.81;10180780;28;20760;-59
2023/08/08 11:16:30;;;;;;;3.25;0.95;;;;;;;21.44;46.02;100022.16;10185803;28;20043;-59
2023/08/08 11:21:41;;;;;;;1.00;0.63;;;;;;;21.47;45.71;100005.50;10184223;28;20082;-58
2023/08/08 11:26:47;;;;;;;4.63;1.05;;;;;;;21.37;44.25;100000.44;10194257;28;20051;-59
2023/08/08 11:31:49;;;;;;;1.77;1.08;;;;;;;21.38;44.32;100006.72;10197523;28;20054;-59
2023/08/08 11:36:51;;;;;;;3.28;0.95;;;;;;;21.36;44.46;100014.19;10170525;28;20061;-59
2023/08/08 11:41:53;;;;;;;3.00;0.82;;;;;;;21.35;43.06;99997.13;10179243;28;20066;-59
2023/08/08 11:47:00;;;;;;;1.25;0.80;;;;;;;21.36;42.82;100000.66;10180509;28;20476;-59
2023/08/08 11:52:01;;;;;;;2.88;0.80;;;;;;;21.36;43.04;100008.78;10186330;28;20748;-59
2023/08/08 11:57:03;;;;;;;2.20;0.55;;;;;;;21.56;43.02;100013.47;10181466;28;20627;-59
2023/08/08 12:02:05;;;;;;;1.77;0.85;;;;;;;21.56;42.16;100002.66;10180899;28;20653;-63
2023/08/08 12:07:07;;;;;;;3.78;1.40;;;;;;;21.63;43.98;100009.78;10201276;28;25073;-59
2023/08/08 12:12:08;;;;;;;1.60;0.90;;;;;;;21.96;43.62;99998.19;10193240;28;23308;-60
2023/08/08 12:17:12;;;;;;;2.47;1.20;;;;;;;22.17;41.99;99991.81;10189189;28;20047;-61
2023/08/08 12:22:14;;;;;;;2.50;0.70;;;;;;;22.22;42.54;99989.31;10189624;28;20055;-59
2023/08/08 12:27:16;;;;;;;2.42;1.23;;;;;;;22.18;43.05;99979.09;10178973;28;25272;-59
2023/08/08 12:32:24;;;;;;;1.20;0.98;;;;;;;22.05;42.69;99983.44;10187700;28;20195;-60
2023/08/08 12:37:26;;;;;;;3.30;1.27;;;;;;;22.03;43.16;99999.06;10186978;28;20062;-60
2023/08/08 12:42:27;;;;;;;2.50;0.95;;;;;;;22.11;42.59;100008.88;10183025;28;20067;-60
2023/08/08 12:47:29;;;;;;;0.90;0.50;;;;;;;22.13;41.77;99998.69;10182243;28;20059;-59
2023/08/08 12:52:31;;;;;;;2.85;1.00;;;;;;;21.89;42.28;99997.38;10186264;28;20063;-60
2023/08/08 12:57:33;;;;;;;2.55;1.10;;;;;;;21.69;41.86;100008.13;10186224;28;20127;-60
2023/08/08 13:02:35;;;;;;;1.50;0.77;;;;;;;21.52;43.73;99988.69;10188811;28;20506;-59
2023/08/08 13:07:36;;;;;;;3.05;1.00;;;;;;;21.57;44.15;99990.78;10187508;28;20138;-60
2023/08/08 13:12:38;;;;;;;1.83;0.60;;;;;;;21.50;44.39;99972.63;10186833;28;20149;-60
2023/08/08 13:17:40;;;;;;;4.20;0.82;;;;;;;21.48;44.06;99963.00;10185816;28;20047;-60
2023/08/08 13:22:42;;;;;;;2.28;0.93;;;;;;;21.56;43.66;99964.72;10186985;28;20066;-60
2023/08/08 13:27:44;;;;;;;2.70;1.17;;;;;;;21.44;43.03;99972.56;10185924;28;20148;-60
2023/08/08 13:32:48;;;;;;;2.35;1.08;;;;;;;21.19;43.11;99968.50;10184907;28;20059;-60
2023/08/08 13:37:51;;;;;;;2.83;1.20;;;;;;;21.07;43.10;99975.50;10184604;28;20089;-60
2023/08/08 13:42:53;;;;;;;2.10;0.80;;;;;;;20.98;42.71;99968.59;10195085;28;20124;-59
2023/08/08 13:47:55;;;;;;;0.80;0.50;;;;;;;20.86;43.03;99965.59;10187078;28;20703;-61
2023/08/08 13:52:56;;;;;;;1.67;0.80;;;;;;;20.95;43.21;99963.59;10182948;28;20613;-60
2023/08/08 13:57:58;;;;;;;2.53;0.77;;;;;;;21.00;43.74;99955.69;10190681;28;20713;-59
2023/08/08 14:03:01;;;;;;;2.75;0.90;;;;;;;20.96;44.11;99952.56;10184356;28;20068;-59
2023/08/08 14:08:03;;;;;;;2.27;0.87;;;;;;;20.95;43.91;99945.47;10185113;28;20053;-59
2023/08/08 14:13:05;;;;;;;2.25;0.60;;;;;;;20.93;44.21;99933.19;10196015;28;20646;-59
2023/08/08 14:18:07;;;;;;;2.50;0.75;;;;;;;20.92;44.57;99947.75;10185578;28;20542;-59
2023/08/08 14:23:09;;;;;;;1.83;0.52;;;;;;;20.82;44.09;99950.78;10197732;28;20063;-59
2023/08/08 14:28:10;;;;;;;2.50;1.05;;;;;;;20.83;43.70;99956.00;10186165;28;20074;-59
2023/08/08 14:33:15;;;;;;;1.88;1.02;;;;;;;20.77;44.14;99945.97;10172409;28;20158;-60
2023/08/08 14:38:17;;;;;;;2.15;0.70;;;;;;;20.80;44.65;99951.00;10181716;28;20704;-60
2023/08/08 14:43:19;;;;;;;2.97;0.80;;;;;;;20.86;44.87;99945.84;10181856;28;20051;-60
2023/08/08 14:48:21;;;;;;;1.38;0.60;;;;;;;20.82;44.90;99940.81;10183781;28;20087;-59
2023/08/08 14:53:22;;;;;;;1.88;0.75;;;;;;;20.76;44.88;99948.88;10182247;28;20158;-59
2023/08/08 14:58:24;;;;;;;2.60;0.88;;;;;;;20.65;44.77;99944.81;10185909;28;20054;-59
2023/08/08 15:03:27;;;;;;;2.15;0.70;;;;;;;20.59;45.21;99942.91;10171979;28;20047;-59
2023/08/08 15:08:32;;;;;;;2.55;0.60;;;;;;;20.55;46.00;99957.84;10190610;28;20599;-60
2023/08/08 15:13:33;;;;;;;2.17;0.50;;;;;;;20.55;46.25;99960.56;10181802;28;20056;-59
2023/08/08 15:18:35;;;;;;;2.60;0.70;;;;;;;20.51;46.26;99970.09;10186531;28;20058;-60
2023/08/08 15:23:37;;;;;;;3.38;1.15;;;;;;;20.41;46.77;99968.56;10181757;28;20055;-60
2023/08/08 15:28:39;;;;;;;3.92;1.15;;;;;;;20.43;47.32;99965.66;10187139;28;20106;-59
2023/08/08 15:33:40;;;;;;;1.90;0.95;;;;;;;20.45;47.67;99980.66;10198963;28;20106;-59
2023/08/08 15:38:42;;;;;;;2.05;0.60;;;;;;;20.29;47.77;99970.13;10182220;28;20111;-60
2023/08/08 15:43:43;;;;;;;2.72;0.50;;;;;;;20.27;48.33;99981.13;10184459;28;20055;-60
2023/08/08 15:48:45;;;;;;;1.88;0.60;;;;;;;20.30;48.79;99971.78;10175534;28;20135;-60
2023/08/08 15:53:47;;;;;;;2.03;0.70;;;;;;;20.29;48.94;99976.34;10196943;28;20383;-60
2023/08/08 15:58:48;;;;;;;2.08;0.50;;;;;;;20.27;49.27;99983.00;10182820;28;20051;-60
2023/08/08 16:03:50;;;;;;;1.33;0.80;;;;;;;20.30;49.36;99979.91;10181813;28;20491;-60
2023/08/08 16:08:52;;;;;;;1.80;0.68;;;;;;;20.40;49.38;99988.53;10174027;28;20870;-60
2023/08/08 16:13:54;;;;;;;1.75;0.90;;;;;;;20.52;49.73;99979.88;10181006;28;20901;-60
2023/08/08 16:18:56;;;;;;;3.13;1.63;;;;;;;20.39;49.51;99973.34;10196144;28;20913;-60
2023/08/08 16:23:57;;;;;;;3.22;1.00;;;;;;;20.35;50.04;99968.50;10180849;28;20151;-60
2023/08/08 16:28:59;;;;;;;4.25;0.93;;;;;;;20.27;50.14;99977.59;10181512;28;20059;-60
2023/08/08 16:34:00;;;;;;;2.28;0.93;;;;;;;20.20;50.71;99976.69;10182717;28;20186;-60
2023/08/08 16:39:03;;;;;;;2.70;0.82;;;;;;;20.16;51.01;99962.72;10183311;28;20183;-60
2023/08/08 16:44:20;;;;;;;2.05;0.90;;;;;;;20.22;51.17;99975.47;10184882;28;20067;-60
2023/08/08 16:49:22;;;;;;;3.20;0.90;;;;;;;20.26;51.60;99989.44;10200091;28;20051;-60
2023/08/08 16:54:23;;;;;;;1.85;0.90;;;;;;;20.22;51.77;99980.03;10188577;28;20194;-59
2023/08/08 16:59:25;;;;;;;4.47;1.20;;;;;;;20.17;52.08;99977.91;10188575;28;20923;-65
2023/08/08 17:04:26;;;;;;;2.88;1.02;;;;;;;20.17;52.22;99971.66;10185835;28;20619;-60
2023/08/08 17:09:28;;;;;;;1.60;1.00;;;;;;;20.13;52.51;99961.25;10188474;28;20203;-60
2023/08/08 17:14:29;;;;;;;1.83;0.80;;;;;;;20.15;52.51;99961.06;10186091;28;20058;-60
2023/08/08 17:19:31;;;;;;;4.05;1.00;;;;;;;20.03;52.83;99963.44;10183294;28;20102;-60
2023/08/08 17:24:32;;;;;;;1.67;0.98;;;;;;;20.10;53.38;99968.88;10187929;28;20059;-60
2023/08/08 17:29:40;;;;;;;1.45;0.57;;;;;;;20.12;53.22;99975.78;10185682;28;20060;-61
2023/08/08 17:34:42;;;;;;;2.55;0.88;;;;;;;20.13;53.61;99977.47;10191192;28;20146;-60
2023/08/08 17:39:44;;;;;;;3.50;1.08;;;;;;;20.13;53.79;99966.66;10173669;28;25028;-59
2023/08/08 17:44:45;;;;;;;3.13;1.10;;;;;;;20.10;54.26;99977.84;10184100;28;20082;-62
2023/08/08 17:49:46;;;;;;;1.60;1.00;;;;;;;20.04;53.99;99973.22;10190723;28;20132;-60
2023/08/08 17:54:48;;;;;;;1.65;0.95;;;;;;;20.03;54.22;99985.03;10186133;28;20190;-61
2023/08/08 17:59:50;;;;;;;3.30;1.00;;;;;;;19.96;54.20;99976.03;10190623;28;20393;-60
2023/08/08 18:04:52;;;;;;;2.42;1.10;;;;;;;19.90;54.32;99979.50;10186835;28;20133;-58
2023/08/08 18:09:53;;;;;;;3.10;1.17;;;;;;;19.89;54.55;99984.06;10190946;28;20051;-59
2023/08/08 18:14:55;;;;;;;2.75;0.82;;;;;;;19.91;54.83;99983.88;10180654;28;20073;-60
2023/08/08 18:19:57;;;;;;;1.95;1.02;;;;;;;19.89;54.89;99969.72;10187863;28;20107;-62
2023/08/08 18:24:59;;;;;;;2.90;1.10;;;;;;;19.88;55.02;99973.47;10183272;28;20303;-60
2023/08/08 18:30:00;;;;;;;2.13;0.95;;;;;;;19.87;55.26;99966.38;10171232;28;20059;-60
2023/08/08 18:35:02;;;;;;;3.92;1.50;;;;;;;19.86;55.21;99970.97;10187434;28;20109;-60
2023/08/08 18:40:05;;;;;;;2.55;0.90;;;;;;;19.83;55.32;99955.13;10187667;28;20055;-59
2023/08/08 18:45:10;;;;;;;2.85;0.93;;;;;;;19.84;55.39;99955.97;10186852;28;20055;-59
2023/08/08 18:50:11;;;;;;;2.10;1.15;;;;;;;19.83;55.47;99965.06;10166517;28;20070;-60
2023/08/08 18:55:13;;;;;;;3.38;1.13;;;;;;;19.81;56.09;99956.34;10183725;28;20727;-59
2023/08/08 19:00:15;;;;;;;2.72;1.75;;;;;;;19.75;55.91;99964.13;10186571;28;20198;-63
2023/08/08 19:05:17;;;;;;;2.10;1.15;;;;;;;19.73;56.42;99970.78;10182058;28;20527;-60
2023/08/08 19:10:18;;;;;;;3.05;1.23;;;;;;;19.73;56.70;99978.88;10187314;28;20146;-59
2023/08/08 19:15:20;;;;;;;2.28;0.77;;;;;;;19.73;56.81;99987.81;10183014;28;20046;-60
2023/08/08 19:20:23;;;;;;;2.42;1.40;;;;;;;19.66;56.29;99978.78;10182559;28;20503;-59
2023/08/08 19:25:24;;;;;;;2.22;1.13;;;;;;;19.61;56.62;99989.31;10183637;28;20051;-59
2023/08/08 19:30:26;;;;;;;4.93;2.05;;;;;;;19.60;56.54;99993.88;10172189;28;20694;-59
2023/08/08 19:35:28;;;;;;;2.50;1.02;;;;;;;19.55;56.75;99979.28;10184134;28;20123;-60
2023/08/08 19:40:31;;;;;;;1.65;0.82;;;;;;;19.55;56.89;99979.28;10184701;28;20134;-59
2023/08/08 19:45:33;;;;;;;;;;;;;;;19.52;57.37;99985.06;10184449;28;20070;-59
2023/08/08 19:50:36;;;;;;;2.90;1.23;;;;;;;19.47;57.19;99974.84;10171623;28;19922;-60
2023/08/08 19:55:38;;;;;;;1.97;1.30;;;;;;;19.42;57.37;99972.66;10183625;28;20378;-60
2023/08/08 20:00:39;;;;;;;2.25;1.23;;;;;;;19.39;58.00;99975.75;10185720;28;20067;-60
2023/08/08 20:05:41;;;;;;;1.60;1.00;;;;;;;19.33;57.48;99976.50;10170097;28;20142;-59
2023/08/08 20:10:43;;;;;;;1.92;1.13;;;;;;;19.39;57.68;99983.84;10183441;28;20075;-59
2023/08/08 20:15:44;;;;;;;2.72;1.42;;;;;;;19.35;57.91;99969.06;10181495;28;20417;-60
2023/08/08 20:20:46;;;;;;;4.15;1.80;;;;;;;19.32;58.35;99976.69;10171542;28;20120;-59
2023/08/08 20:25:48;;;;;;;3.33;1.65;;;;;;;19.31;58.42;99967.75;10178440;28;20109;-59
2023/08/08 20:30:51;;;;;;;3.78;1.65;;;;;;;19.29;58.57;99959.03;10208167;28;20144;-59
2023/08/08 20:35:52;;;;;;;2.50;1.40;;;;;;;19.21;58.61;99967.22;10206121;28;26931;-59
2023/08/08 20:40:55;;;;;;;2.30;1.00;;;;;;;19.14;58.47;99966.28;10178155;28;20055;-59
2023/08/08 20:45:57;;;;;;;1.87;1.20;;;;;;;19.13;58.61;99970.84;10189510;28;20056;-59
2023/08/08 20:50:58;;;;;;;2.90;1.17;;;;;;;19.13;58.85;99961.94;10189211;28;20566;-59
2023/08/08 20:56:00;;;;;;;5.97;1.67;;;;;;;19.11;58.98;99966.66;10187561;28;20685;-59
2023/08/08 21:01:04;;;;;;;1.63;0.95;;;;;;;19.01;58.76;99966.94;10189813;28;20177;-60
2023/08/08 21:06:06;;;;;;;3.22;1.27;;;;;;;18.97;58.81;99966.47;10186492;28;20059;-59
2023/08/08 21:11:08;;;;;;;1.98;0.93;;;;;;;18.95;58.95;99968.50;10186525;28;20719;-60
2023/08/08 21:16:10;;;;;;;2.00;0.98;;;;;;;18.96;58.86;99967.50;10188194;28;20058;-61
2023/08/08 21:21:12;;;;;;;1.52;0.90;;;;;;;18.88;58.84;99960.31;10176545;28;20111;-61
2023/08/08 21:26:14;;;;;;;2.35;0.85;;;;;;;18.84;59.56;99963.53;10187726;28;20051;-61
2023/08/08 21:31:26;;;;;;;2.90;1.23;;;;;;;18.92;59.63;99951.88;10176815;28;20070;-59
2023/08/08 21:36:28;;;;;;;3.03;1.35;;;;;;;18.90;60.94;99952.91;10175557;28;20053;-58
2023/08/08 21:41:29;;;;;;;4.85;1.70;;;;;;;18.88;63.08;99954.09;10191898;28;20515;-60
2023/08/08 21:46:31;;;;;;;2.85;1.17;;;;;;;18.80;63.42;99959.56;10204986;28;20727;-60
2023/08/08 21:51:34;;;;;;;2.60;1.50;;;;;;;18.79;64.79;99963.25;10188525;28;20059;-60
2023/08/08 21:56:36;;;;;;;2.47;1.15;;;;;;;18.69;67.53;99975.16;10203204;28;20051;-59
2023/08/08 22:01:37;;;;;;;2.33;1.42;;;;;;;18.61;69.51;99969.81;10188827;28;20190;-59
2023/08/08 22:06:39;;;;;;;3.35;1.25;;;;;;;18.46;71.16;99969.78;10184987;28;20581;-59
2023/08/08 22:11:40;;;;;;;3.28;1.75;;;;;;;18.43;71.86;99966.63;10196747;28;20269;-60
2023/08/08 22:16:42;;;;;;;3.35;1.50;;;;;;;18.38;73.65;99975.25;10169109;28;20154;-60
2023/08/08 22:21:44;;;;;;;1.90;1.50;;;;;;;18.28;74.99;99956.63;10181766;28;20106;-60
2023/08/08 22:26:45;;;;;;;3.60;1.40;;;;;;;18.14;76.73;99949.38;10185593;28;20114;-60
2023/08/08 22:31:46;;;;;;;4.95;1.85;;;;;;;18.08;78.15;99950.09;10167080;28;20142;-60
2023/08/08 22:36:48;;;;;;;2.92;2.03;;;;;;;17.93;79.86;99948.16;10187142;28;20199;-60
2023/08/08 22:41:50;;;;;;;2.83;1.40;;;;;;;17.91;80.16;99928.66;10170737;28;20110;-60
2023/08/08 22:46:51;;;;;;;4.20;1.98;;;;;;;17.86;81.32;99936.38;10184489;28;20065;-60
2023/08/08 22:51:53;;;;;;;3.42;1.40;;;;;;;17.84;82.31;99938.44;10188531;28;20046;-60
2023/08/08 22:56:54;;;;;;;2.97;1.63;;;;;;;17.80;83.24;99915.56;10183240;28;20059;-60
2023/08/08 23:01:56;;;;;;;2.30;1.67;;;;;;;17.74;83.09;99914.44;10184931;28;26626;-60
2023/08/08 23:06:57;;;;;;;2.05;1.42;;;;;;;17.72;83.87;99903.00;10183852;28;20621;-61
2023/08/08 23:12:00;;;;;;;5.03;1.95;;;;;;;17.75;85.32;99908.03;10185085;28;20059;-60
2023/08/08 23:17:02;;;;;;;2.65;1.77;;;;;;;17.72;84.69;99902.19;10183165;28;20056;-61